Time;durP1;ratioP1;P1;durP2;ratioP2;P2;SDS_P1;SDS_P2;PMS_P1;PMS_P2;Temp;Humidity;BMP_temperature;BMP_pressure;BME280_temperature;BME280_humidity;BME280_pressure;Samples;Min_cycle;Max_cycle;Signal;HPM_P1;HPM_P2
2021/07/28 00:01:21;;;;;;;0.40;0.20;;;;;;;18.75;100.00;99910.13;4993674;28;20450;-57
2021/07/28 00:03:49;;;;;;;0.40;0.30;;;;;;;18.73;100.00;99908.53;4964130;28;20528;-56
2021/07/28 00:06:28;;;;;;;0.40;0.20;;;;;;;18.62;100.00;99904.69;4989553;28;20500;-57
2021/07/28 00:08:54;;;;;;;0.40;0.20;;;;;;;18.65;100.00;99898.28;4993270;28;20825;-56
2021/07/28 00:11:21;;;;;;;0.40;0.30;;;;;;;18.54;100.00;99908.88;4992659;28;20788;-57
2021/07/28 00:13:47;;;;;;;0.40;0.20;;;;;;;18.50;100.00;99910.94;4993498;28;20473;-57
2021/07/28 00:16:15;;;;;;;0.40;0.20;;;;;;;18.59;100.00;99909.44;4993043;28;20950;-57
2021/07/28 00:24:09;;;;;;;0.40;0.20;;;;;;;18.70;100.00;99914.97;4980307;28;20971;-56
2021/07/28 00:26:38;;;;;;;0.40;0.20;;;;;;;18.71;100.00;99907.78;4993282;28;20457;-57
2021/07/28 00:29:05;;;;;;;0.40;0.20;;;;;;;18.48;100.00;99907.47;4992852;28;20553;-56
2021/07/28 00:31:31;;;;;;;0.40;0.30;;;;;;;18.48;100.00;99904.75;4992656;28;20917;-56
2021/07/28 00:33:58;;;;;;;0.40;0.20;;;;;;;18.26;100.00;99904.50;4988513;28;20559;-56
2021/07/28 00:36:24;;;;;;;0.40;0.20;;;;;;;18.28;100.00;99903.41;5004364;23;20505;-52
2021/07/28 00:38:51;;;;;;;0.50;0.40;;;;;;;18.20;100.00;99900.38;4990083;28;20954;-52
2021/07/28 00:41:18;;;;;;;0.40;0.30;;;;;;;18.03;100.00;99901.47;4981881;28;20453;-52
2021/07/28 00:43:45;;;;;;;0.40;0.20;;;;;;;18.08;100.00;99900.31;4979800;28;20509;-51
2021/07/28 00:46:11;;;;;;;0.40;0.20;;;;;;;18.19;100.00;99904.03;4992599;28;20524;-52
2021/07/28 00:48:38;;;;;;;6.40;1.00;;;;;;;18.11;100.00;99910.91;4992440;28;20465;-52
2021/07/28 00:51:05;;;;;;;0.40;0.20;;;;;;;18.14;100.00;99913.38;4991931;28;20493;-51
2021/07/28 00:53:32;;;;;;;0.40;0.20;;;;;;;17.97;100.00;99912.66;4992519;28;20505;-51
2021/07/28 00:56:02;;;;;;;0.40;0.20;;;;;;;17.93;100.00;99916.47;4989501;28;20478;-52
2021/07/28 00:58:30;;;;;;;0.40;0.20;;;;;;;17.83;100.00;99915.38;4967056;28;20507;-51
2021/07/28 01:00:57;;;;;;;0.40;0.20;;;;;;;17.81;100.00;99902.97;4997731;28;20454;-52
2021/07/28 01:03:24;;;;;;;0.40;0.20;;;;;;;17.60;100.00;99902.50;5000127;28;20803;-51
2021/07/28 01:05:51;;;;;;;0.40;0.20;;;;;;;17.57;100.00;99895.50;4992897;28;20504;-52
2021/07/28 01:08:18;;;;;;;0.40;0.30;;;;;;;17.61;100.00;99901.53;4994081;28;20448;-52
2021/07/28 01:10:46;;;;;;;0.40;0.20;;;;;;;17.60;100.00;99897.13;4991466;28;20489;-52
2021/07/28 01:13:15;;;;;;;0.40;0.20;;;;;;;17.72;100.00;99905.31;4992566;28;20457;-52
2021/07/28 01:15:42;;;;;;;0.40;0.20;;;;;;;17.66;100.00;99912.84;4992270;28;20532;-53
2021/07/28 01:18:13;;;;;;;0.90;0.80;;;;;;;17.46;100.00;99906.94;4992808;28;20478;-51
2021/07/28 01:20:42;;;;;;;0.40;0.20;;;;;;;17.59;100.00;99907.03;4992677;28;20460;-51
2021/07/28 01:23:25;;;;;;;0.53;0.53;;;;;;;17.44;100.00;99906.16;4992741;28;20508;-51
2021/07/28 01:25:53;;;;;;;0.40;0.20;;;;;;;17.42;100.00;99905.41;4992315;28;20477;-51
2021/07/28 01:28:21;;;;;;;0.50;0.40;;;;;;;17.24;100.00;99903.00;4992292;28;20453;-52
2021/07/28 01:30:59;;;;;;;0.40;0.20;;;;;;;17.30;100.00;99895.44;4992524;28;20927;-51
2021/07/28 01:33:29;;;;;;;0.40;0.20;;;;;;;17.14;100.00;99879.41;4991816;28;20449;-51
2021/07/28 01:35:57;;;;;;;0.50;0.40;;;;;;;17.20;100.00;99885.34;4992321;28;20481;-53
2021/07/28 01:38:27;;;;;;;0.40;0.20;;;;;;;17.18;100.00;99882.75;4992105;28;20507;-52
2021/07/28 01:40:56;;;;;;;0.50;0.40;;;;;;;17.24;100.00;99887.72;4992336;28;20453;-52
2021/07/28 01:43:24;;;;;;;0.50;0.50;;;;;;;17.35;100.00;99885.25;4992217;28;20450;-53
2021/07/28 01:45:51;;;;;;;0.40;0.20;;;;;;;17.29;100.00;99885.63;4992393;28;20540;-52
2021/07/28 01:48:17;;;;;;;0.40;0.20;;;;;;;17.28;100.00;99883.06;4992373;28;20500;-52
2021/07/28 01:50:45;;;;;;;0.40;0.20;;;;;;;17.17;100.00;99876.53;4994197;28;20449;-52
2021/07/28 01:53:13;;;;;;;0.40;0.20;;;;;;;17.23;100.00;99883.31;4995561;28;20461;-52
2021/07/28 01:55:41;;;;;;;0.40;0.20;;;;;;;17.05;100.00;99871.91;4994853;28;20982;-52
2021/07/28 01:58:08;;;;;;;0.40;0.20;;;;;;;17.09;100.00;99872.56;4993302;28;20453;-52
2021/07/28 02:00:35;;;;;;;0.50;0.47;;;;;;;16.92;100.00;99875.44;4995504;28;20996;-52
2021/07/28 02:03:03;;;;;;;0.40;0.20;;;;;;;16.93;100.00;99875.34;4995497;28;20449;-52
2021/07/28 02:05:37;;;;;;;0.60;0.53;;;;;;;17.05;100.00;99879.97;4987996;28;20485;-52
2021/07/28 02:08:06;;;;;;;0.40;0.20;;;;;;;16.78;100.00;99876.28;4995368;28;20445;-52
2021/07/28 02:10:42;;;;;;;0.40;0.20;;;;;;;16.95;100.00;99892.22;4995669;28;20457;-52
2021/07/28 02:13:09;;;;;;;0.40;0.20;;;;;;;16.96;100.00;99893.94;4971914;28;20488;-53
2021/07/28 02:15:36;;;;;;;0.40;0.30;;;;;;;16.80;100.00;99893.16;4995163;28;20473;-52
2021/07/28 02:18:04;;;;;;;0.40;0.20;;;;;;;16.64;100.00;99887.81;4995434;28;20507;-52
2021/07/28 02:20:31;;;;;;;0.40;0.20;;;;;;;16.73;100.00;99892.69;4995148;28;20508;-52
2021/07/28 02:22:59;;;;;;;0.40;0.20;;;;;;;16.57;100.00;99894.50;4995488;28;20458;-52
2021/07/28 02:25:26;;;;;;;0.40;0.30;;;;;;;16.59;100.00;99889.94;4994839;28;20480;-52
2021/07/28 02:27:53;;;;;;;0.40;0.20;;;;;;;16.70;100.00;99889.28;4995423;28;20524;-52
2021/07/28 02:30:19;;;;;;;0.40;0.20;;;;;;;16.63;100.00;99891.47;4995205;28;20453;-53
2021/07/28 02:32:47;;;;;;;0.40;0.30;;;;;;;16.43;100.00;99891.78;4995176;28;20493;-52
2021/07/28 02:35:14;;;;;;;0.40;0.30;;;;;;;16.41;100.00;99897.22;4994482;28;20482;-52
2021/07/28 02:37:42;;;;;;;0.40;0.30;;;;;;;16.50;100.00;99895.84;4995165;28;20827;-52
2021/07/28 02:40:11;;;;;;;0.67;0.67;;;;;;;16.58;100.00;99894.44;4993906;28;20515;-52
2021/07/28 02:42:38;;;;;;;0.40;0.20;;;;;;;16.71;100.00;99899.06;4995164;28;21018;-52
2021/07/28 02:45:06;;;;;;;0.50;0.40;;;;;;;16.68;100.00;99899.25;4994395;28;20469;-52
2021/07/28 02:47:33;;;;;;;0.47;0.37;;;;;;;16.68;100.00;99902.81;4994982;28;20461;-52
2021/07/28 02:50:00;;;;;;;0.57;0.50;;;;;;;16.63;100.00;99904.03;4993810;28;20857;-52
2021/07/28 02:52:26;;;;;;;0.93;0.93;;;;;;;16.72;100.00;99900.78;4994617;28;20559;-52
2021/07/28 02:54:53;;;;;;;0.40;0.20;;;;;;;16.78;100.00;99889.72;4994271;28;20453;-52
2021/07/28 02:57:20;;;;;;;0.40;0.20;;;;;;;16.61;100.00;99895.19;4991548;28;20504;-52
2021/07/28 02:59:46;;;;;;;1.17;1.17;;;;;;;16.81;100.00;99890.38;4994717;28;20453;-52
2021/07/28 03:02:13;;;;;;;0.70;0.70;;;;;;;16.45;100.00;99885.38;4993251;28;20462;-52
2021/07/28 03:04:40;;;;;;;0.40;0.20;;;;;;;16.36;100.00;99883.22;4987144;28;20450;-52
2021/07/28 03:07:06;;;;;;;0.60;0.60;;;;;;;16.25;100.00;99883.00;4994693;28;20453;-52
2021/07/28 03:09:33;;;;;;;0.60;0.60;;;;;;;16.45;100.00;99876.47;4994225;28;20880;-52
2021/07/28 03:12:00;;;;;;;0.40;0.20;;;;;;;16.58;100.00;99883.69;4994348;28;20508;-52
2021/07/28 03:14:26;;;;;;;0.40;0.20;;;;;;;16.72;100.00;99896.31;4994087;28;20480;-53
2021/07/28 03:16:53;;;;;;;0.40;0.30;;;;;;;16.56;100.00;99895.44;4994097;28;20473;-52
2021/07/28 03:19:19;;;;;;;0.40;0.20;;;;;;;16.73;100.00;99903.41;4994134;28;20962;-52
2021/07/28 03:21:50;;;;;;;0.40;0.20;;;;;;;16.72;100.00;99898.13;4994123;28;20445;-52
2021/07/28 03:24:19;;;;;;;0.40;0.20;;;;;;;16.44;100.00;99886.31;4993823;28;20818;-52
2021/07/28 03:26:46;;;;;;;0.40;0.20;;;;;;;16.54;100.00;99898.22;4994260;28;20489;-52
2021/07/28 03:29:13;;;;;;;0.40;0.20;;;;;;;16.65;100.00;99889.53;4993867;28;20457;-52
2021/07/28 03:31:40;;;;;;;0.40;0.30;;;;;;;16.81;100.00;99894.88;4994510;28;21092;-53
2021/07/28 03:34:07;;;;;;;0.40;0.20;;;;;;;17.07;100.00;99901.34;4994928;28;20453;-52
2021/07/28 03:36:33;;;;;;;0.40;0.20;;;;;;;17.19;100.00;99895.22;4994004;28;20486;-52
2021/07/28 03:39:00;;;;;;;0.60;0.40;;;;;;;17.28;100.00;99899.19;4993811;28;20457;-52
2021/07/28 03:41:27;;;;;;;0.40;0.20;;;;;;;17.42;100.00;99893.78;4993671;28;20453;-52
2021/07/28 03:43:53;;;;;;;0.60;0.60;;;;;;;17.29;100.00;99899.06;4993530;28;20454;-52
2021/07/28 03:46:20;;;;;;;1.10;0.50;;;;;;;17.16;100.00;99898.09;4993354;28;21040;-52
2021/07/28 03:48:47;;;;;;;27.67;3.40;;;;;;;17.29;100.00;99901.75;4992342;28;20442;-52
2021/07/28 03:51:13;;;;;;;0.40;0.30;;;;;;;17.44;100.00;99910.69;4992783;28;20481;-52
2021/07/28 03:53:40;;;;;;;0.60;0.60;;;;;;;17.43;100.00;99909.81;4993809;28;20511;-52
2021/07/28 03:56:06;;;;;;;0.87;0.87;;;;;;;17.48;100.00;99905.00;4989603;28;20537;-53
2021/07/28 03:58:33;;;;;;;1.17;1.17;;;;;;;17.42;100.00;99893.78;4993460;28;20458;-52
2021/07/28 04:01:00;;;;;;;0.40;0.20;;;;;;;17.55;100.00;99889.38;4993610;28;20626;-52
2021/07/28 04:03:27;;;;;;;0.40;0.20;;;;;;;17.52;100.00;99886.00;4991946;28;20453;-52
2021/07/28 04:05:54;;;;;;;0.40;0.20;;;;;;;17.71;100.00;99886.59;4987664;28;20477;-52
2021/07/28 04:08:21;;;;;;;0.40;0.30;;;;;;;17.42;100.00;99881.22;4993185;28;20873;-51
2021/07/28 04:10:48;;;;;;;0.40;0.20;;;;;;;17.35;100.00;99873.63;4993313;28;20457;-53
2021/07/28 04:13:15;;;;;;;0.40;0.20;;;;;;;17.44;100.00;99876.59;4993102;28;20496;-52
2021/07/28 04:15:42;;;;;;;0.50;0.50;;;;;;;17.13;100.00;99875.00;4992254;28;20479;-52
2021/07/28 04:18:09;;;;;;;0.83;0.80;;;;;;;17.16;100.00;99872.09;4993245;28;20452;-53
2021/07/28 04:20:36;;;;;;;0.40;0.20;;;;;;;17.08;100.00;99871.72;4993117;28;20457;-52
2021/07/28 04:23:03;;;;;;;0.60;0.50;;;;;;;17.25;100.00;99873.34;4994466;28;20930;-52
2021/07/28 04:25:30;;;;;;;0.60;0.60;;;;;;;17.25;100.00;99867.09;4992806;28;20890;-53
2021/07/28 04:27:56;;;;;;;1.13;1.10;;;;;;;17.28;100.00;99862.41;4993161;28;20544;-52
2021/07/28 04:30:23;;;;;;;0.40;0.30;;;;;;;17.37;100.00;99863.66;4993330;28;20453;-52
2021/07/28 04:32:50;;;;;;;0.40;0.20;;;;;;;17.53;100.00;99871.59;4993193;28;20499;-52
2021/07/28 04:35:16;;;;;;;0.63;0.63;;;;;;;17.61;100.00;99875.53;4990819;28;21051;-53
2021/07/28 04:37:43;;;;;;;0.90;0.90;;;;;;;17.62;100.00;99869.19;4993516;28;20457;-52
2021/07/28 04:40:10;;;;;;;0.40;0.30;;;;;;;17.70;100.00;99864.22;4992682;28;20541;-53
2021/07/28 04:42:37;;;;;;;0.50;0.40;;;;;;;17.71;100.00;99875.84;4993039;28;20445;-52
2021/07/28 04:45:05;;;;;;;1.13;1.13;;;;;;;17.77;100.00;99870.91;4992732;28;20473;-52
2021/07/28 04:47:33;;;;;;;0.40;0.20;;;;;;;17.70;100.00;99866.91;4992657;28;20548;-52
2021/07/28 04:50:00;;;;;;;0.40;0.20;;;;;;;17.81;100.00;99874.25;4991914;28;20442;-53
2021/07/28 04:52:26;;;;;;;0.40;0.30;;;;;;;17.86;100.00;99869.47;4992971;28;20496;-52
2021/07/28 04:54:53;;;;;;;0.40;0.20;;;;;;;17.95;100.00;99871.53;4992789;28;20508;-53
2021/07/28 04:57:20;;;;;;;0.40;0.30;;;;;;;18.13;100.00;99876.69;4989079;28;20453;-52
2021/07/28 04:59:46;;;;;;;0.70;0.40;;;;;;;18.45;100.00;99878.06;4992834;28;20453;-53
2021/07/28 05:02:13;;;;;;;1.60;0.83;;;;;;;18.82;100.00;99873.75;4992616;28;20450;-53
2021/07/28 05:04:42;;;;;;;0.40;0.20;;;;;;;18.92;100.00;99871.28;4985622;28;20464;-52
2021/07/28 05:07:08;;;;;;;0.50;0.40;;;;;;;19.01;100.00;99865.25;4992711;28;20974;-52
2021/07/28 05:09:35;;;;;;;1.00;0.90;;;;;;;19.12;100.00;99876.13;4992672;28;20457;-52
2021/07/28 05:12:01;;;;;;;0.40;0.20;;;;;;;19.27;100.00;99882.25;4992650;28;20532;-53
2021/07/28 05:14:28;;;;;;;0.70;0.70;;;;;;;19.17;100.00;99889.25;4992840;28;20884;-54
2021/07/28 05:16:55;;;;;;;0.57;0.57;;;;;;;19.18;100.00;99886.47;4992747;28;20469;-53
2021/07/28 05:19:22;;;;;;;0.87;0.87;;;;;;;19.19;100.00;99885.53;4991326;28;20450;-53
2021/07/28 05:21:49;;;;;;;0.50;0.40;;;;;;;19.15;100.00;99893.91;4992741;28;20520;-54
2021/07/28 05:24:15;;;;;;;0.47;0.30;;;;;;;19.14;100.00;99898.44;4994069;28;20449;-53
2021/07/28 05:26:42;;;;;;;0.40;0.20;;;;;;;19.06;100.00;99902.66;4996610;28;20473;-53
2021/07/28 05:29:09;;;;;;;0.50;0.40;;;;;;;19.16;100.00;99898.31;4996236;28;20453;-55
2021/07/28 05:31:36;;;;;;;0.50;0.40;;;;;;;19.24;100.00;99906.75;4996768;28;21018;-53
2021/07/28 05:34:03;;;;;;;0.40;0.20;;;;;;;19.56;100.00;99907.16;4994923;28;20989;-53
2021/07/28 05:36:30;;;;;;;0.93;0.93;;;;;;;19.55;100.00;99909.97;4996024;28;20477;-53
2021/07/28 05:38:56;;;;;;;1.10;1.07;;;;;;;19.32;100.00;99904.34;4996116;28;20500;-53
2021/07/28 05:41:23;;;;;;;2.30;2.00;;;;;;;19.27;100.00;99901.13;4996473;28;20488;-54
2021/07/28 05:43:50;;;;;;;0.40;0.20;;;;;;;19.22;100.00;99896.06;4997048;28;20508;-53
2021/07/28 05:46:16;;;;;;;0.67;0.67;;;;;;;19.06;100.00;99890.03;4996392;28;20942;-53
2021/07/28 05:48:43;;;;;;;0.40;0.20;;;;;;;18.70;100.00;99887.19;4996351;28;20465;-52
2021/07/28 05:51:10;;;;;;;0.40;0.30;;;;;;;18.72;100.00;99891.50;4995255;28;20449;-53
2021/07/28 05:53:37;;;;;;;0.50;0.40;;;;;;;18.85;100.00;99891.53;4969885;28;20491;-52
2021/07/28 05:56:04;;;;;;;0.40;0.20;;;;;;;18.78;100.00;99893.78;4992368;28;20474;-53
2021/07/28 05:58:31;;;;;;;0.40;0.20;;;;;;;19.05;100.00;99888.31;4995935;28;20508;-54
2021/07/28 06:00:58;;;;;;;0.40;0.20;;;;;;;18.64;100.00;99883.97;4995917;28;20855;-53
2021/07/28 06:03:25;;;;;;;0.40;0.20;;;;;;;19.13;100.00;99888.63;4994275;28;20536;-53
2021/07/28 06:05:51;;;;;;;0.40;0.20;;;;;;;19.12;100.00;99900.38;4990032;28;21029;-54
2021/07/28 06:08:18;;;;;;;1.83;0.90;;;;;;;19.18;100.00;99908.03;4995907;28;20888;-53
2021/07/28 06:10:46;;;;;;;0.40;0.20;;;;;;;19.39;100.00;99911.03;4995823;28;20457;-54
2021/07/28 06:13:13;;;;;;;0.70;0.70;;;;;;;19.48;100.00;99917.63;4995657;28;20551;-53
2021/07/28 06:15:39;;;;;;;0.40;0.30;;;;;;;19.49;100.00;99917.50;4995151;28;20469;-53
2021/07/28 06:18:08;;;;;;;0.70;0.67;;;;;;;19.73;100.00;99911.34;4995611;28;20481;-53
2021/07/28 06:20:35;;;;;;;0.40;0.20;;;;;;;19.76;100.00;99919.22;4995512;28;20458;-54
2021/07/28 06:23:01;;;;;;;0.40;0.30;;;;;;;19.52;100.00;99913.72;4995553;28;20420;-53
2021/07/28 06:25:28;;;;;;;0.80;0.80;;;;;;;19.29;100.00;99912.66;4995913;28;20609;-53
2021/07/28 06:27:55;;;;;;;1.47;1.47;;;;;;;19.82;100.00;99908.84;4994979;28;20453;-53
2021/07/28 06:30:21;;;;;;;0.40;0.30;;;;;;;19.56;100.00;99914.41;4995097;28;20504;-53
2021/07/28 06:32:48;;;;;;;0.40;0.20;;;;;;;19.58;100.00;99902.53;4995017;28;20489;-53
2021/07/28 06:35:16;;;;;;;0.40;0.30;;;;;;;19.48;100.00;99882.59;5009872;22;20511;-62
2021/07/28 06:37:43;;;;;;;0.50;0.50;;;;;;;19.55;100.00;99909.97;4987304;28;20884;-57
2021/07/28 06:40:10;;;;;;;0.40;0.20;;;;;;;19.64;100.00;99901.25;4992114;28;20451;-58
2021/07/28 06:42:37;;;;;;;1.90;1.73;;;;;;;19.65;100.00;99909.22;4985281;28;20938;-58
2021/07/28 06:45:04;;;;;;;4.10;1.80;;;;;;;19.82;100.00;99907.97;4981367;28;20943;-58
2021/07/28 06:47:31;;;;;;;0.50;0.30;;;;;;;19.96;100.00;99913.22;4994789;28;20451;-58
2021/07/28 06:49:58;;;;;;;1.27;0.50;;;;;;;20.44;100.00;99923.25;4994040;28;20981;-58
2021/07/28 06:52:24;;;;;;;0.50;0.40;;;;;;;20.32;100.00;99914.19;4994819;28;20516;-58
2021/07/28 06:54:51;;;;;;;0.50;0.43;;;;;;;20.65;100.00;99916.19;4994788;28;20828;-58
2021/07/28 06:57:17;;;;;;;0.40;0.20;;;;;;;20.78;100.00;99911.56;4991577;28;20469;-57
2021/07/28 06:59:44;;;;;;;1.60;1.50;;;;;;;20.98;100.00;99910.06;4994216;28;20457;-58
2021/07/28 07:02:11;;;;;;;0.40;0.20;;;;;;;20.76;100.00;99902.72;4994602;28;20875;-58
2021/07/28 07:04:37;;;;;;;1.03;1.03;;;;;;;20.97;100.00;99901.09;4987168;28;20464;-58
2021/07/28 07:07:04;;;;;;;0.50;0.40;;;;;;;20.67;100.00;99901.59;4994730;28;20473;-58
2021/07/28 07:09:31;;;;;;;0.40;0.30;;;;;;;20.63;100.00;99894.72;4994335;28;20504;-58
2021/07/28 07:11:57;;;;;;;1.50;1.20;;;;;;;20.57;100.00;99897.03;4994357;28;20478;-57
2021/07/28 07:14:24;;;;;;;0.43;0.30;;;;;;;20.61;100.00;99890.41;4994006;28;20489;-58
2021/07/28 07:16:51;;;;;;;0.40;0.20;;;;;;;20.34;100.00;99891.50;4994244;28;20473;-58
2021/07/28 07:19:17;;;;;;;0.40;0.30;;;;;;;20.64;100.00;99898.25;4994387;28;20524;-58
2021/07/28 07:21:44;;;;;;;0.40;0.20;;;;;;;20.72;100.00;99895.84;4992754;28;20508;-57
2021/07/28 07:24:10;;;;;;;0.40;0.20;;;;;;;21.10;100.00;99905.50;4994032;28;20454;-58
2021/07/28 07:26:37;;;;;;;0.40;0.30;;;;;;;21.26;100.00;99917.75;4993912;28;20469;-58
2021/07/28 07:29:04;;;;;;;0.73;0.67;;;;;;;21.18;100.00;99906.63;4992784;28;20461;-58
2021/07/28 07:31:30;;;;;;;0.70;0.70;;;;;;;21.31;100.00;99909.28;4993734;28;20446;-58
2021/07/28 07:33:57;;;;;;;0.40;0.20;;;;;;;21.00;100.00;99908.94;4992425;28;21064;-58
2021/07/28 07:36:25;;;;;;;0.40;0.30;;;;;;;20.96;100.00;99902.03;4993686;28;21001;-58
2021/07/28 07:38:51;;;;;;;0.50;0.30;;;;;;;21.68;100.00;99901.78;4993411;28;20424;-58
2021/07/28 07:41:18;;;;;;;5.20;2.40;;;;;;;21.61;99.65;99905.09;4993561;28;20479;-58
2021/07/28 07:43:44;;;;;;;0.40;0.20;;;;;;;21.51;100.00;99897.72;4993488;28;20950;-58
2021/07/28 07:46:11;;;;;;;0.40;0.20;;;;;;;21.28;100.00;99894.16;4993812;28;20474;-58
2021/07/28 07:48:38;;;;;;;0.40;0.30;;;;;;;21.35;100.00;99893.66;4993053;28;20464;-58
2021/07/28 07:51:04;;;;;;;0.40;0.20;;;;;;;21.26;100.00;99885.31;4993030;28;20508;-57
2021/07/28 07:53:31;;;;;;;0.50;0.40;;;;;;;21.02;100.00;99897.16;4991947;28;20840;-58
2021/07/28 07:55:58;;;;;;;0.40;0.20;;;;;;;21.02;100.00;99898.00;4990437;28;20498;-58
2021/07/28 07:58:25;;;;;;;1.60;1.50;;;;;;;21.11;100.00;99885.63;4993377;28;20511;-58
2021/07/28 08:00:51;;;;;;;0.70;0.70;;;;;;;21.22;100.00;99891.88;4993704;28;20483;-58
2021/07/28 08:03:18;;;;;;;2.80;2.70;;;;;;;21.43;100.00;99885.81;4967538;28;20523;-58
2021/07/28 08:05:45;;;;;;;0.87;0.87;;;;;;;21.97;100.00;99871.47;4986974;28;20968;-58
2021/07/28 08:08:12;;;;;;;0.40;0.20;;;;;;;22.19;97.20;99871.44;4993158;28;20574;-58
2021/07/28 08:10:39;;;;;;;0.97;0.97;;;;;;;22.08;98.40;99876.91;4991660;28;20460;-58
2021/07/28 08:13:08;;;;;;;0.40;0.30;;;;;;;22.29;97.83;99871.53;4993140;28;21051;-58
2021/07/28 08:15:35;;;;;;;0.40;0.30;;;;;;;22.90;94.50;99877.19;4993264;28;20531;-58
2021/07/28 08:18:02;;;;;;;0.80;0.80;;;;;;;23.26;91.96;99881.25;4993217;28;20461;-58
2021/07/28 08:20:29;;;;;;;0.40;0.30;;;;;;;22.88;93.80;99877.31;4993206;28;20460;-58
2021/07/28 08:22:55;;;;;;;0.40;0.20;;;;;;;22.26;94.75;99875.34;4993311;28;20445;-58
2021/07/28 08:25:22;;;;;;;0.97;0.97;;;;;;;22.86;93.88;99870.28;4993046;28;20566;-58
2021/07/28 08:27:49;;;;;;;1.10;0.90;;;;;;;23.16;91.57;99866.75;4993179;28;20428;-58
2021/07/28 08:30:15;;;;;;;0.40;0.30;;;;;;;22.66;92.96;99878.28;4992863;28;20451;-58
2021/07/28 08:32:42;;;;;;;0.70;0.70;;;;;;;23.10;92.80;99867.31;4992662;28;21060;-58
2021/07/28 08:35:09;;;;;;;0.50;0.30;;;;;;;22.96;92.87;99860.38;4993026;28;20478;-58
2021/07/28 08:37:40;;;;;;;0.40;0.30;;;;;;;23.10;92.26;99876.31;4992780;28;20856;-58
2021/07/28 08:40:16;;;;;;;0.40;0.30;;;;;;;22.98;91.63;99872.81;4992742;28;20450;-58
2021/07/28 08:42:48;;;;;;;3.60;0.77;;;;;;;22.54;93.94;99889.28;4992834;28;20483;-58
2021/07/28 08:45:17;;;;;;;2.50;1.47;;;;;;;22.57;93.40;99889.03;4992933;28;20507;-58
2021/07/28 08:47:44;;;;;;;0.40;0.20;;;;;;;22.86;93.33;99892.84;4992762;28;20427;-58
2021/07/28 08:50:13;;;;;;;0.70;0.70;;;;;;;22.62;94.01;99890.38;4992429;28;20949;-58
2021/07/28 08:52:40;;;;;;;0.90;0.40;;;;;;;22.70;93.32;99890.56;4992567;28;20508;-59
2021/07/28 08:55:07;;;;;;;0.40;0.30;;;;;;;22.82;92.77;99896.78;4992425;28;20454;-58
2021/07/28 08:57:35;;;;;;;0.40;0.30;;;;;;;22.70;92.50;99890.56;4989075;28;20453;-58
2021/07/28 09:00:04;;;;;;;0.40;0.20;;;;;;;22.84;91.38;99892.13;4994603;28;20429;-59
2021/07/28 09:02:31;;;;;;;0.63;0.63;;;;;;;22.75;91.41;99893.75;4996661;28;20453;-58
2021/07/28 09:04:58;;;;;;;0.40;0.20;;;;;;;22.77;91.67;99902.59;4978245;28;20523;-58
2021/07/28 09:07:24;;;;;;;0.40;0.30;;;;;;;22.86;92.82;99895.56;4996429;28;20508;-59
2021/07/28 09:09:54;;;;;;;0.80;0.77;;;;;;;22.69;92.61;99886.13;4996878;28;20548;-58
2021/07/28 09:12:32;;;;;;;0.40;0.20;;;;;;;22.66;93.51;99893.66;4996267;28;20420;-58
2021/07/28 09:15:02;;;;;;;0.40;0.20;;;;;;;22.57;93.33;99884.47;4996345;28;20472;-58
2021/07/28 09:17:29;;;;;;;0.40;0.20;;;;;;;22.80;92.94;99895.19;4996466;28;20484;-58
2021/07/28 09:19:58;;;;;;;2.50;2.10;;;;;;;22.75;93.73;99896.47;4996574;28;20449;-58
2021/07/28 09:22:39;;;;;;;0.40;0.20;;;;;;;22.87;92.91;99891.00;4996417;28;20447;-59
2021/07/28 09:25:14;;;;;;;0.80;0.80;;;;;;;23.28;90.73;99890.09;4996398;28;20479;-58
2021/07/28 09:27:49;;;;;;;0.40;0.20;;;;;;;23.08;90.20;99889.16;4996248;28;20419;-58
2021/07/28 09:30:23;;;;;;;1.53;1.53;;;;;;;22.87;90.12;99899.13;4996412;28;20444;-58
2021/07/28 09:33:09;;;;;;;0.40;0.20;;;;;;;22.87;91.62;99886.44;4996007;28;20427;-58
2021/07/28 09:35:54;;;;;;;2.20;0.70;;;;;;;23.41;88.64;99881.75;4981365;28;20562;-58
2021/07/28 09:38:35;;;;;;;0.70;0.70;;;;;;;23.40;88.51;99885.44;4995830;28;20453;-58
2021/07/28 09:41:26;;;;;;;0.40;0.30;;;;;;;23.65;88.60;99876.88;4995936;28;20451;-58
2021/07/28 09:43:56;;;;;;;0.40;0.20;;;;;;;23.59;88.44;99874.72;4995655;28;20446;-58
2021/07/28 09:46:27;;;;;;;1.67;1.63;;;;;;;23.81;86.38;99882.66;4995596;28;20524;-59
2021/07/28 09:48:55;;;;;;;0.67;0.67;;;;;;;23.58;86.73;99873.03;4970928;28;20906;-58
2021/07/28 09:51:24;;;;;;;0.40;0.30;;;;;;;23.71;87.89;99868.22;4994974;28;20495;-57
2021/07/28 09:53:55;;;;;;;0.40;0.30;;;;;;;24.17;85.52;99873.03;4995786;28;20455;-58
2021/07/28 09:56:32;;;;;;;0.40;0.30;;;;;;;24.12;85.12;99874.41;4992150;28;20481;-59
2021/07/28 09:58:59;;;;;;;0.50;0.40;;;;;;;24.23;84.12;99883.31;4995713;28;20416;-58
2021/07/28 10:01:28;;;;;;;1.37;1.37;;;;;;;24.14;84.62;99877.88;4995907;28;20474;-59
2021/07/28 10:03:58;;;;;;;0.40;0.20;;;;;;;23.80;84.52;99883.66;4990465;28;20541;-58
2021/07/28 10:06:29;;;;;;;0.40;0.30;;;;;;;23.74;85.36;99884.22;4994766;28;20447;-59
2021/07/28 10:08:56;;;;;;;0.40;0.20;;;;;;;23.83;84.83;99887.94;4995760;28;20420;-59
2021/07/28 10:11:24;;;;;;;1.03;1.03;;;;;;;23.82;84.99;99878.94;4995098;28;20851;-59
2021/07/28 10:13:52;;;;;;;0.50;0.30;;;;;;;23.97;84.34;99887.53;4995265;28;20515;-58
2021/07/28 10:16:19;;;;;;;3.60;0.60;;;;;;;23.74;85.19;99886.06;4995555;28;20443;-59
2021/07/28 10:18:48;;;;;;;0.40;0.30;;;;;;;23.67;85.99;99883.03;4995269;28;20434;-59
2021/07/28 10:21:36;;;;;;;1.27;0.63;;;;;;;23.59;87.33;99882.88;4995468;28;20532;-59
2021/07/28 10:24:04;;;;;;;0.40;0.20;;;;;;;23.57;85.11;99882.09;4995492;28;20442;-58
2021/07/28 10:26:38;;;;;;;0.40;0.20;;;;;;;24.09;84.17;99882.84;4995430;28;21026;-59
2021/07/28 10:29:07;;;;;;;1.03;0.60;;;;;;;24.42;82.50;99885.25;4995342;28;20420;-59
2021/07/28 10:31:44;;;;;;;0.50;0.30;;;;;;;24.20;82.24;99874.59;4995462;28;20453;-58
2021/07/28 10:34:31;;;;;;;0.40;0.20;;;;;;;24.19;81.07;99873.72;4970329;28;20949;-59
2021/07/28 10:37:08;;;;;;;0.40;0.20;;;;;;;24.06;82.29;99880.44;4994868;28;20455;-59
2021/07/28 10:39:46;;;;;;;1.00;1.00;;;;;;;23.89;82.06;99873.81;4994246;28;20445;-59
2021/07/28 10:42:33;;;;;;;0.80;0.80;;;;;;;23.78;83.52;99872.06;4995128;28;20435;-58
2021/07/28 10:45:09;;;;;;;0.50;0.30;;;;;;;24.05;82.73;99874.13;4994774;28;20484;-59
2021/07/28 10:47:36;;;;;;;1.30;1.20;;;;;;;24.46;81.66;99864.06;4995471;28;20446;-59
2021/07/28 10:50:22;;;;;;;0.60;0.60;;;;;;;24.52;82.02;99858.03;4994253;28;20496;-59
2021/07/28 10:52:55;;;;;;;1.03;0.63;;;;;;;24.69;80.93;99848.31;4995102;28;20424;-59
2021/07/28 10:55:24;;;;;;;0.50;0.30;;;;;;;24.43;81.53;99848.06;4971264;28;20472;-59
2021/07/28 10:57:54;;;;;;;0.93;0.93;;;;;;;24.66;80.94;99849.44;4991015;28;20478;-59
2021/07/28 11:00:39;;;;;;;0.40;0.20;;;;;;;23.80;82.50;99851.06;4994743;28;20458;-59
2021/07/28 11:03:12;;;;;;;0.40;0.20;;;;;;;23.98;82.24;99858.53;4994662;28;20984;-59
2021/07/28 11:05:40;;;;;;;0.60;0.57;;;;;;;23.74;83.18;99854.34;4987229;28;20561;-59
2021/07/28 11:08:07;;;;;;;0.40;0.20;;;;;;;23.84;82.94;99857.06;4994501;28;20869;-59
2021/07/28 11:10:53;;;;;;;0.67;0.67;;;;;;;24.21;81.78;99868.16;4994783;28;20510;-58
2021/07/28 11:13:21;;;;;;;0.50;0.40;;;;;;;24.40;83.45;99879.09;4972581;28;20486;-59
2021/07/28 11:16:02;;;;;;;0.50;0.50;;;;;;;24.26;81.53;99871.31;4994160;28;20991;-59
2021/07/28 11:18:40;;;;;;;0.40;0.30;;;;;;;24.48;81.89;99862.91;4994655;28;20783;-59
2021/07/28 11:21:10;;;;;;;0.40;0.30;;;;;;;24.75;82.78;99866.75;4994395;28;20486;-59
2021/07/28 11:23:40;;;;;;;0.40;0.20;;;;;;;24.23;82.38;99872.44;4993863;28;20445;-59
2021/07/28 11:26:17;;;;;;;0.40;0.20;;;;;;;24.55;83.25;99870.50;4994165;28;20448;-60
2021/07/28 11:28:44;;;;;;;0.50;0.40;;;;;;;24.40;83.18;99873.66;4992884;28;20465;-60
2021/07/28 11:31:12;;;;;;;0.40;0.20;;;;;;;24.51;82.97;99875.34;4994160;28;20507;-60
2021/07/28 11:33:39;;;;;;;0.57;0.57;;;;;;;24.18;80.01;99882.03;4993028;28;20981;-60
2021/07/28 11:36:06;;;;;;;0.40;0.30;;;;;;;24.63;79.88;99878.78;4993729;28;20455;-59
2021/07/28 11:38:35;;;;;;;0.40;0.20;;;;;;;24.36;81.18;99880.34;4993890;28;20482;-60